createdAt,value
2019-03-18T00:06:10.497Z,95.90
2019-03-18T00:16:15.073Z,95.60
2019-03-18T00:26:19.933Z,96.30
2019-03-18T00:36:24.479Z,94.30
2019-03-18T00:46:29.047Z,94.20
2019-03-18T00:56:33.491Z,94.00
2019-03-18T01:06:37.933Z,93.60
2019-03-18T01:16:42.439Z,95.10
2019-03-18T01:26:46.993Z,96.40
2019-03-18T01:36:51.674Z,96.30
2019-03-18T01:46:57.354Z,95.80
2019-03-18T01:57:01.843Z,95.90
2019-03-18T02:07:06.322Z,97.10
2019-03-18T02:17:10.834Z,96.40
2019-03-18T02:27:16.514Z,96.00
2019-03-18T02:37:21.078Z,96.60
2019-03-18T02:47:25.509Z,95.60
2019-03-18T02:57:29.969Z,96.00
2019-03-18T03:07:34.484Z,95.90
2019-03-18T03:17:39.035Z,96.30
2019-03-18T03:27:43.528Z,94.80
2019-03-18T03:37:48.076Z,94.00
2019-03-18T03:47:52.548Z,93.20
2019-03-18T03:57:56.981Z,93.30
2019-03-18T04:08:01.555Z,92.40
2019-03-18T04:18:06.120Z,93.70
2019-03-18T04:28:10.588Z,94.00
2019-03-18T04:38:15.082Z,94.90
2019-03-18T04:48:19.567Z,94.80
2019-03-18T04:58:24.034Z,94.60
2019-03-18T05:08:28.864Z,94.60
2019-03-18T05:18:33.475Z,95.10
2019-03-18T05:28:38.033Z,95.10
2019-03-18T05:38:42.665Z,95.40
2019-03-18T05:48:47.132Z,95.50
2019-03-18T05:58:51.620Z,95.60
2019-03-18T06:08:56.200Z,95.90
2019-03-18T06:19:00.732Z,95.30
2019-03-18T06:29:05.194Z,95.20
2019-03-18T06:39:09.670Z,94.90
2019-03-18T06:49:14.218Z,94.30
2019-03-18T06:59:19.077Z,92.90
2019-03-18T07:09:23.512Z,93.30
2019-03-18T07:19:28.024Z,92.10
2019-03-18T07:29:32.468Z,91.60
2019-03-18T07:39:36.954Z,91.90
2019-03-18T07:49:41.503Z,90.70
2019-03-18T07:59:45.967Z,90.40
2019-03-18T08:09:50.419Z,90.50
2019-03-18T08:19:56.187Z,88.90
2019-03-18T08:30:00.623Z,87.20
2019-03-18T08:40:06.503Z,86.80
2019-03-18T08:50:12.439Z,87.10
2019-03-18T09:00:18.150Z,87.60
2019-03-18T09:10:22.767Z,86.80
2019-03-18T09:20:27.432Z,81.00
2019-03-18T09:30:31.938Z,75.20
2019-03-18T09:40:36.417Z,73.70
2019-03-18T09:50:41.033Z,65.50
2019-03-18T10:00:45.533Z,68.00
2019-03-18T10:10:50.108Z,62.50
2019-03-18T10:20:54.598Z,63.60
2019-03-18T10:30:59.148Z,64.70
2019-03-18T10:41:03.621Z,65.20
2019-03-18T10:51:08.093Z,59.80
2019-03-18T11:01:12.571Z,64.90
2019-03-18T11:11:17.089Z,56.90
2019-03-18T11:21:21.658Z,56.50
2019-03-18T11:31:26.154Z,55.80
2019-03-18T11:41:30.719Z,57.00
2019-03-18T11:51:35.299Z,56.00
2019-03-18T12:01:39.788Z,57.50
2019-03-18T12:11:44.290Z,54.90
2019-03-18T12:21:48.772Z,52.80
2019-03-18T12:31:53.266Z,51.20
2019-03-18T12:41:57.763Z,52.20
2019-03-18T12:52:02.248Z,52.60
2019-03-18T13:02:22.565Z,47.90
2019-03-18T13:12:27.074Z,49.00
2019-03-18T13:22:33.023Z,47.40
2019-03-18T13:32:38.634Z,46.00
2019-03-18T13:42:43.174Z,50.30
2019-03-18T13:52:47.766Z,48.00
2019-03-18T14:02:52.375Z,49.80
2019-03-18T14:12:56.974Z,47.00
2019-03-18T14:23:01.437Z,49.60
2019-03-18T14:33:05.925Z,47.00
2019-03-18T14:43:10.411Z,49.20
2019-03-18T14:53:14.866Z,46.10
2019-03-18T15:03:19.414Z,46.90
2019-03-18T15:13:30.912Z,46.90
2019-03-18T15:23:30.499Z,48.20
2019-03-18T15:33:35.264Z,47.40
2019-03-18T15:43:39.955Z,48.90
2019-03-18T15:53:44.820Z,49.70
2019-03-18T16:04:00.073Z,50.40
2019-03-18T16:14:05.379Z,51.20
2019-03-18T16:24:10.158Z,53.50
2019-03-18T16:34:14.983Z,55.20
2019-03-18T16:44:19.835Z,53.70
2019-03-18T16:54:24.697Z,54.60
2019-03-18T17:04:29.651Z,54.90
2019-03-18T17:14:39.959Z,55.50
2019-03-18T17:24:44.995Z,57.40
2019-03-18T17:34:50.936Z,57.20
2019-03-18T17:44:55.759Z,57.60
2019-03-18T17:55:00.602Z,59.10
2019-03-18T18:05:06.275Z,59.80
2019-03-18T18:15:29.335Z,58.90
2019-03-18T18:25:34.031Z,59.50
2019-03-18T18:35:40.172Z,60.60
2019-03-18T18:45:48.678Z,60.10
2019-03-18T18:55:55.874Z,61.90
2019-03-18T19:06:51.815Z,68.50
2019-03-18T19:16:57.958Z,75.80
2019-03-18T19:37:29.800Z,78.60
2019-03-18T19:58:12.723Z,80.50
2019-03-18T20:18:24.399Z,81.80
2019-03-18T20:28:30.622Z,82.90
2019-03-18T20:38:46.395Z,82.50
2019-03-18T20:48:52.453Z,83.20
2019-03-18T20:58:58.438Z,83.20
2019-03-18T21:09:06.166Z,87.10
2019-03-18T21:19:12.756Z,88.10
2019-03-18T21:29:18.765Z,88.00
2019-03-18T21:39:25.954Z,87.70
2019-03-18T21:49:31.754Z,90.70
2019-03-18T21:59:37.361Z,90.60
2019-03-18T22:09:42.861Z,90.40
2019-03-18T22:19:48.385Z,89.60
2019-03-18T22:29:53.868Z,89.80
2019-03-18T22:39:59.355Z,90.40
2019-03-18T22:50:07.277Z,91.40
2019-03-18T23:00:22.034Z,91.70
2019-03-18T23:10:29.114Z,92.80
2019-03-18T23:20:34.752Z,93.40
2019-03-18T23:30:40.331Z,93.40
2019-03-18T23:40:45.839Z,93.40
2019-03-18T23:50:51.475Z,93.50
